Time;durP1;ratioP1;P1;durP2;ratioP2;P2;SDS_P1;SDS_P2;PMS_P1;PMS_P2;Temp;Humidity;BMP_temperature;BMP_pressure;BME280_temperature;BME280_humidity;BME280_pressure;Samples;Min_cycle;Max_cycle;Signal;HPM_P1;HPM_P2
2021/08/12 00:00:17;;;;;;;5.72;2.33;;;15.80;99.90;;;;;;6281419;22;20453;-96
2021/08/12 00:02:43;;;;;;;5.28;2.30;;;15.80;99.90;;;;;;6281870;22;19996;-95
2021/08/12 00:05:09;;;;;;;4.38;1.95;;;15.70;99.90;;;;;;6281756;22;20014;-95
2021/08/12 00:07:35;;;;;;;5.35;2.53;;;15.70;99.90;;;;;;6281774;22;20006;-94
2021/08/12 00:10:01;;;;;;;2.70;2.03;;;15.60;99.90;;;;;;6281133;22;20446;-95
2021/08/12 00:12:27;;;;;;;3.50;1.90;;;15.50;99.90;;;;;;6281604;22;20060;-95
2021/08/12 00:14:55;;;;;;;4.47;1.98;;;15.50;99.90;;;;;;6280992;22;20007;-95
2021/08/12 00:17:21;;;;;;;5.97;2.25;;;15.50;99.90;;;;;;6283678;22;20015;-95
2021/08/12 00:19:47;;;;;;;5.13;2.22;;;15.40;99.90;;;;;;6283010;22;20011;-95
2021/08/12 00:22:15;;;;;;;4.57;2.17;;;15.30;99.90;;;;;;6284327;22;20009;-96
2021/08/12 00:24:41;;;;;;;3.45;2.20;;;15.30;99.90;;;;;;6285679;22;20067;-95
2021/08/12 00:27:07;;;;;;;3.55;2.50;;;15.20;99.90;;;;;;6283824;22;20003;-94
2021/08/12 00:29:36;;;;;;;6.72;2.30;;;15.20;99.90;;;;;;6286041;22;20003;-96
2021/08/12 00:32:02;;;;;;;3.72;2.38;;;15.20;99.90;;;;;;6285133;22;20006;-96
2021/08/12 00:34:28;;;;;;;4.63;2.20;;;15.10;99.90;;;;;;6288001;22;20009;-96
2021/08/12 00:36:56;;;;;;;3.75;2.10;;;15.10;99.90;;;;;;6289643;22;20003;-94
2021/08/12 00:39:22;;;;;;;6.78;2.03;;;15.00;99.90;;;;;;6284234;22;20022;-96
2021/08/12 00:41:52;;;;;;;5.72;1.92;;;15.00;99.90;;;;;;6302590;22;20003;-96
2021/08/12 00:44:26;;;;;;;7.57;2.30;;;14.90;99.90;;;;;;6299188;22;20003;-96
2021/08/12 00:46:57;;;;;;;3.63;2.65;;;14.90;99.90;;;;;;6301499;22;19996;-96
2021/08/12 00:49:23;;;;;;;4.55;2.40;;;14.80;99.90;;;;;;6299857;22;20004;-96
2021/08/12 00:51:52;;;;;;;5.30;2.42;;;14.70;99.90;;;;;;6299173;22;20015;-96
2021/08/12 00:54:23;;;;;;;4.60;2.47;;;14.60;99.90;;;;;;6303855;22;19999;-96
2021/08/12 00:56:59;;;;;;;4.15;2.10;;;14.60;99.90;;;;;;6309831;22;19999;-96
2021/08/12 00:59:31;;;;;;;8.07;2.20;;;14.50;99.90;;;;;;6331176;22;20017;-96
2021/08/12 01:02:01;;;;;;;5.97;2.60;;;14.50;99.90;;;;;;6299197;22;19995;-96
2021/08/12 01:04:28;;;;;;;4.80;2.40;;;14.40;99.90;;;;;;6330918;22;20021;-95
2021/08/12 01:10:00;;;;;;;6.50;2.92;;;14.30;99.90;;;;;;6285346;22;20049;-95
2021/08/12 01:12:55;;;;;;;6.45;2.75;;;14.20;99.90;;;;;;6262351;22;20049;-96
2021/08/12 01:15:29;;;;;;;5.53;2.63;;;14.20;99.90;;;;;;6296905;22;20004;-96
2021/08/12 01:18:03;;;;;;;8.45;2.30;;;14.10;99.90;;;;;;6295162;22;20015;-96
2021/08/12 01:21:04;;;;;;;5.47;2.78;;;14.10;99.90;;;;;;6265012;22;20007;-94
2021/08/12 01:23:30;;;;;;;5.93;2.83;;;14.10;99.90;;;;;;6287477;22;20008;-96
2021/08/12 01:26:06;;;;;;;6.03;2.70;;;14.10;99.90;;;;;;6268710;22;20004;-96
2021/08/12 01:28:43;;;;;;;5.18;3.00;;;14.00;99.90;;;;;;6265336;22;20443;-96
2021/08/12 01:31:21;;;;;;;4.82;2.47;;;14.00;99.90;;;;;;6264300;22;20034;-96
2021/08/12 01:33:56;;;;;;;7.35;2.70;;;14.00;99.90;;;;;;6257735;22;20023;-96
2021/08/12 01:36:23;;;;;;;3.63;2.50;;;14.00;99.90;;;;;;6265818;22;20003;-96
2021/08/12 01:38:51;;;;;;;7.07;2.72;;;14.00;99.90;;;;;;6269850;22;20007;-96
2021/08/12 01:41:17;;;;;;;7.40;2.83;;;13.90;99.90;;;;;;6266173;22;20012;-96
2021/08/12 01:43:46;;;;;;;6.45;2.80;;;13.90;99.90;;;;;;6297881;22;20000;-96
2021/08/12 01:46:15;;;;;;;6.00;2.50;;;13.90;99.90;;;;;;6300362;22;20010;-96
2021/08/12 01:48:42;;;;;;;3.78;2.38;;;13.90;99.90;;;;;;6322105;22;20026;-95
2021/08/12 01:51:11;;;;;;;9.05;3.00;;;13.80;99.90;;;;;;6290526;22;20084;-96
2021/08/12 01:53:37;;;;;;;7.13;2.60;;;13.80;99.90;;;;;;6316790;22;20002;-95
2021/08/12 01:56:04;;;;;;;5.07;2.50;;;13.80;99.90;;;;;;6317377;22;20017;-95
2021/08/12 01:58:31;;;;;;;9.05;2.78;;;13.80;99.90;;;;;;6314987;22;20003;-96
2021/08/12 02:00:58;;;;;;;6.32;2.85;;;13.80;99.90;;;;;;6313820;22;20010;-96
2021/08/12 02:03:26;;;;;;;5.05;2.67;;;13.70;99.90;;;;;;6317640;22;19999;-96
2021/08/12 02:05:54;;;;;;;4.38;2.50;;;13.70;99.90;;;;;;6321564;22;20022;-95
2021/08/12 02:08:20;;;;;;;4.53;2.60;;;13.70;99.90;;;;;;6296285;22;20014;-95
2021/08/12 02:10:48;;;;;;;7.65;2.22;;;13.60;99.90;;;;;;6283732;22;20491;-95
2021/08/12 02:13:14;;;;;;;6.75;2.53;;;13.60;99.90;;;;;;6283732;22;20018;-95
2021/08/12 02:15:43;;;;;;;6.75;2.45;;;13.60;99.90;;;;;;6282508;22;20003;-95
2021/08/12 02:18:09;;;;;;;4.97;2.58;;;13.50;99.90;;;;;;6283036;22;20011;-95
2021/08/12 02:20:36;;;;;;;7.00;2.55;;;13.50;99.90;;;;;;6284328;22;20034;-95
2021/08/12 02:23:15;;;;;;;7.75;2.42;;;13.50;99.90;;;;;;6285318;22;19999;-96
2021/08/12 02:25:51;;;;;;;4.78;2.47;;;13.40;99.90;;;;;;6284823;22;20003;-96
2021/08/12 02:28:18;;;;;;;9.90;2.13;;;13.30;99.90;;;;;;6285951;22;19999;-96
2021/08/12 02:30:49;;;;;;;9.98;2.30;;;13.30;99.90;;;;;;6288192;22;20007;-95
2021/08/12 02:33:17;;;;;;;10.73;2.30;;;13.20;99.90;;;;;;6299414;22;20003;-95
2021/08/12 02:35:43;;;;;;;5.82;2.40;;;13.20;99.90;;;;;;6286609;22;20017;-94
2021/08/12 02:38:12;;;;;;;6.32;2.35;;;13.10;99.90;;;;;;6283911;22;20027;-94
2021/08/12 02:40:38;;;;;;;8.65;2.50;;;13.00;99.90;;;;;;6283651;22;20007;-95
2021/08/12 02:43:05;;;;;;;6.90;2.35;;;13.00;99.90;;;;;;6283271;22;20185;-94
2021/08/12 02:45:33;;;;;;;6.10;2.20;;;13.00;99.90;;;;;;6283135;22;20061;-95
2021/08/12 02:48:00;;;;;;;4.63;2.30;;;12.90;99.90;;;;;;6282316;22;20007;-96
2021/08/12 02:50:28;;;;;;;7.55;2.47;;;12.90;99.90;;;;;;6283077;22;20018;-95
2021/08/12 02:52:57;;;;;;;9.35;2.10;;;12.80;99.90;;;;;;6284090;22;20015;-95
2021/08/12 02:55:26;;;;;;;7.20;2.20;;;12.80;99.90;;;;;;6282854;22;20007;-96
2021/08/12 02:57:51;;;;;;;7.55;2.70;;;12.70;99.90;;;;;;6281935;22;20007;-95
2021/08/12 03:00:18;;;;;;;9.65;2.80;;;12.60;99.90;;;;;;6281379;22;20015;-94
2021/08/12 03:02:48;;;;;;;7.63;2.40;;;12.60;99.90;;;;;;6281348;22;20438;-95
2021/08/12 03:05:14;;;;;;;8.68;2.47;;;12.50;99.90;;;;;;6283361;22;20093;-95
2021/08/12 03:07:43;;;;;;;6.40;2.40;;;12.50;99.90;;;;;;6282406;22;20007;-94
2021/08/12 03:10:12;;;;;;;7.97;2.60;;;12.50;99.90;;;;;;6281868;22;20042;-95
2021/08/12 03:12:39;;;;;;;9.25;2.40;;;12.40;99.90;;;;;;6283063;22;20100;-96
2021/08/12 03:15:07;;;;;;;11.38;2.17;;;12.40;99.90;;;;;;6291407;22;20006;-95
2021/08/12 03:17:35;;;;;;;9.10;2.30;;;12.40;99.90;;;;;;6297162;22;20037;-95
2021/08/12 03:20:02;;;;;;;9.15;2.80;;;12.30;99.90;;;;;;6271681;22;20015;-96
2021/08/12 03:22:28;;;;;;;8.93;2.15;;;12.20;99.90;;;;;;6293764;22;20003;-95
2021/08/12 03:24:54;;;;;;;11.63;2.38;;;12.20;99.90;;;;;;6288008;22;20007;-96
2021/08/12 03:27:20;;;;;;;8.13;2.40;;;12.10;99.90;;;;;;6287218;22;20057;-96
2021/08/12 03:29:47;;;;;;;8.70;2.15;;;12.10;99.90;;;;;;6290407;22;20003;-95
2021/08/12 03:32:15;;;;;;;9.52;2.00;;;12.00;99.90;;;;;;6290627;22;20034;-96
2021/08/12 03:34:41;;;;;;;8.57;2.20;;;12.00;99.90;;;;;;6287099;22;20000;-95
2021/08/12 03:37:07;;;;;;;9.80;2.38;;;12.00;99.90;;;;;;6286039;22;20003;-95
2021/08/12 03:39:36;;;;;;;8.32;2.38;;;12.00;99.90;;;;;;6284343;22;20015;-96
2021/08/12 03:42:02;;;;;;;5.72;2.15;;;11.90;99.90;;;;;;6288352;22;19999;-95
2021/08/12 03:44:27;;;;;;;10.68;2.63;;;11.90;99.90;;;;;;6288485;22;20010;-94
2021/08/12 03:46:53;;;;;;;9.38;2.60;;;11.80;99.90;;;;;;6288294;22;20007;-96
2021/08/12 03:49:22;;;;;;;10.63;2.50;;;11.80;99.90;;;;;;6281436;22;20443;-95
2021/08/12 03:51:48;;;;;;;9.90;2.30;;;11.80;99.90;;;;;;6286296;22;19999;-95
2021/08/12 03:54:14;;;;;;;11.32;2.00;;;11.80;99.90;;;;;;6291752;22;20037;-96
2021/08/12 03:56:40;;;;;;;8.93;3.13;;;11.70;99.90;;;;;;6286930;22;20026;-96
2021/08/12 03:59:07;;;;;;;9.20;2.03;;;11.70;99.90;;;;;;6288571;22;20011;-95
2021/08/12 04:01:33;;;;;;;7.85;2.03;;;11.60;99.90;;;;;;6291225;22;20010;-96
2021/08/12 04:03:59;;;;;;;6.68;2.20;;;11.60;99.90;;;;;;6283806;22;19999;-96
2021/08/12 04:06:26;;;;;;;10.02;2.35;;;11.50;99.90;;;;;;6280333;22;20390;-95
2021/08/12 04:08:52;;;;;;;5.38;1.95;;;11.50;99.90;;;;;;6277304;22;20106;-96
2021/08/12 04:11:17;;;;;;;9.55;2.72;;;11.50;99.90;;;;;;6278582;22;20063;-96
2021/08/12 04:13:43;;;;;;;8.93;2.30;;;11.40;99.90;;;;;;6277906;22;20008;-95
2021/08/12 04:16:09;;;;;;;8.30;2.25;;;11.30;99.90;;;;;;6276033;22;20011;-95
2021/08/12 04:18:38;;;;;;;7.80;2.65;;;11.20;99.90;;;;;;6280159;22;20011;-95
2021/08/12 04:21:06;;;;;;;6.00;2.65;;;11.20;99.90;;;;;;6287312;22;20003;-96
2021/08/12 04:23:33;;;;;;;11.20;2.85;;;11.10;99.90;;;;;;6284877;22;20011;-96
2021/08/12 04:25:59;;;;;;;7.63;2.15;;;11.10;99.90;;;;;;6280799;22;20004;-96
2021/08/12 04:28:25;;;;;;;8.13;2.63;;;11.00;99.90;;;;;;6278732;22;20007;-95
2021/08/12 04:30:50;;;;;;;9.45;2.72;;;11.00;99.90;;;;;;6277295;22;20030;-96
2021/08/12 04:33:17;;;;;;;6.25;2.45;;;11.00;99.90;;;;;;6279043;22;20078;-96
2021/08/12 04:35:44;;;;;;;8.77;2.63;;;10.90;99.90;;;;;;6279186;22;20008;-95
2021/08/12 04:38:10;;;;;;;12.80;2.53;;;10.90;99.90;;;;;;6279615;22;20004;-96
2021/08/12 04:40:37;;;;;;;11.63;3.08;;;10.90;99.90;;;;;;6279325;22;20332;-96
2021/08/12 04:43:03;;;;;;;7.82;3.45;;;10.90;99.90;;;;;;6280664;22;20023;-96
2021/08/12 04:45:32;;;;;;;9.55;2.53;;;10.80;99.90;;;;;;6280218;22;20003;-96
2021/08/12 04:48:00;;;;;;;8.57;3.33;;;10.80;99.90;;;;;;6283001;22;20011;-95
2021/08/12 04:50:26;;;;;;;8.13;3.45;;;10.80;99.90;;;;;;6279959;22;20008;-96
2021/08/12 04:52:54;;;;;;;12.18;2.35;;;10.80;99.90;;;;;;6279005;22;20000;-96
2021/08/12 04:55:22;;;;;;;5.50;2.38;;;10.70;99.90;;;;;;6280541;22;20000;-96
2021/08/12 04:57:48;;;;;;;13.73;2.75;;;10.70;99.90;;;;;;6285296;22;20034;-96
2021/08/12 05:00:17;;;;;;;9.23;2.80;;;10.70;99.90;;;;;;6283290;22;20011;-96
2021/08/12 05:02:43;;;;;;;5.28;2.40;;;10.70;99.90;;;;;;6282434;22;20012;-96
2021/08/12 05:05:10;;;;;;;6.65;2.40;;;10.60;99.90;;;;;;6280347;22;20015;-95
2021/08/12 05:07:35;;;;;;;5.47;2.38;;;10.50;99.90;;;;;;6278641;22;20000;-96
2021/08/12 05:10:07;;;;;;;6.78;2.55;;;10.50;99.90;;;;;;6281443;22;20018;-96
2021/08/12 05:12:33;;;;;;;9.27;3.65;;;10.40;99.90;;;;;;6268443;22;20014;-95
2021/08/12 05:43:03;;;;;;;;;;;10.40;99.90;;;;;;6276183;22;20026;-94
2021/08/12 05:45:30;;;;;;;4.50;1.98;;;10.50;99.90;;;;;;6251431;22;19935;-94
2021/08/12 05:47:56;;;;;;;3.80;2.45;;;10.40;99.90;;;;;;6252131;22;20003;-94
2021/08/12 05:50:22;;;;;;;6.15;2.78;;;10.40;99.90;;;;;;6252747;22;20003;-94
2021/08/12 05:52:47;;;;;;;3.88;2.72;;;10.50;99.90;;;;;;6252469;22;20015;-93
2021/08/12 05:55:13;;;;;;;4.15;2.85;;;10.50;99.90;;;;;;6252169;22;20063;-94
2021/08/12 05:57:39;;;;;;;5.80;2.40;;;10.50;99.90;;;;;;6279579;22;20082;-96
2021/08/12 06:00:05;;;;;;;8.90;3.05;;;10.60;99.90;;;;;;6279033;22;20339;-95
2021/08/12 06:02:32;;;;;;;5.95;3.00;;;10.70;99.90;;;;;;6253400;22;20003;-95
2021/08/12 06:04:58;;;;;;;8.38;2.95;;;10.70;99.90;;;;;;6280710;22;20000;-94
2021/08/12 06:07:26;;;;;;;11.57;4.53;;;10.80;99.90;;;;;;6253188;22;20007;-94
2021/08/12 06:09:52;;;;;;;6.50;2.78;;;10.80;99.90;;;;;;6278308;22;20008;-94
2021/08/12 06:12:18;;;;;;;7.93;2.85;;;10.90;99.90;;;;;;6250444;22;20000;-95
2021/08/12 06:14:46;;;;;;;7.53;3.13;;;11.00;99.90;;;;;;6250382;22;19999;-94
2021/08/12 06:17:12;;;;;;;17.38;5.43;;;11.00;99.90;;;;;;6250688;22;20003;-94
2021/08/12 06:19:37;;;;;;;17.55;6.68;;;11.10;99.90;;;;;;6251392;22;20027;-94
2021/08/12 06:22:03;;;;;;;19.42;6.53;;;11.20;99.90;;;;;;6251098;22;20092;-93
2021/08/12 06:24:31;;;;;;;12.40;6.38;;;11.30;99.90;;;;;;6250364;22;20008;-94
2021/08/12 06:26:57;;;;;;;12.27;5.35;;;11.40;99.90;;;;;;6251887;22;20086;-95
2021/08/12 06:29:23;;;;;;;20.15;7.28;;;11.50;99.90;;;;;;6257042;22;20077;-95
2021/08/12 06:31:48;;;;;;;11.70;5.90;;;11.60;99.90;;;;;;6256989;22;20003;-94
2021/08/12 06:34:17;;;;;;;20.27;7.18;;;11.70;99.90;;;;;;6257539;22;20367;-95
2021/08/12 06:36:43;;;;;;;29.70;9.50;;;11.80;99.90;;;;;;6255770;22;20003;-95
2021/08/12 06:39:08;;;;;;;21.98;7.72;;;11.90;99.90;;;;;;6252202;22;20020;-93
2021/08/12 06:41:34;;;;;;;23.30;8.38;;;11.90;99.90;;;;;;6245804;23;20009;-94
2021/08/12 06:43:59;;;;;;;21.17;8.07;;;12.00;99.90;;;;;;6245678;23;20008;-93
2021/08/12 06:46:28;;;;;;;18.40;8.20;;;12.10;99.90;;;;;;6244808;23;20114;-96
2021/08/12 06:48:54;;;;;;;17.10;8.27;;;12.20;99.90;;;;;;6245879;23;20008;-94
2021/08/12 06:51:20;;;;;;;24.20;9.10;;;12.20;99.90;;;;;;6245874;23;20064;-95
2021/08/12 06:53:47;;;;;;;19.67;9.98;;;12.30;99.90;;;;;;6248108;23;20447;-94
2021/08/12 06:56:13;;;;;;;23.15;10.50;;;12.40;99.90;;;;;;6257202;23;20008;-94
2021/08/12 06:58:39;;;;;;;25.92;10.25;;;12.40;99.90;;;;;;6253300;23;20581;-95
2021/08/12 07:01:04;;;;;;;16.10;8.30;;;12.50;99.90;;;;;;6246076;23;20515;-94
2021/08/12 07:03:30;;;;;;;20.40;7.82;;;12.60;99.90;;;;;;6246819;23;20074;-95
2021/08/12 07:05:56;;;;;;;20.27;7.63;;;12.80;99.90;;;;;;6245735;23;20023;-94
2021/08/12 07:08:21;;;;;;;13.57;7.70;;;12.90;99.90;;;;;;6245962;22;20023;-95
2021/08/12 07:10:50;;;;;;;21.83;6.60;;;12.90;99.90;;;;;;6222071;23;20055;-94
2021/08/12 07:13:15;;;;;;;17.95;6.70;;;13.00;99.90;;;;;;6245468;23;20218;-94
2021/08/12 07:15:41;;;;;;;17.65;6.00;;;13.10;99.90;;;;;;6246144;23;20027;-94
2021/08/12 07:18:06;;;;;;;22.52;8.80;;;13.20;99.90;;;;;;6245715;23;20004;-95
2021/08/12 07:20:47;;;;;;;21.20;7.07;;;13.20;99.90;;;;;;6247397;23;20016;-95
2021/08/12 07:23:13;;;;;;;;;;;13.30;99.90;;;;;;6223305;23;20036;-96
2021/08/12 07:25:39;;;;;;;18.77;5.80;;;13.40;99.90;;;;;;6250272;23;19906;-95
2021/08/12 07:28:04;;;;;;;15.48;5.22;;;13.50;99.90;;;;;;6254905;23;20101;-96
2021/08/12 07:30:30;;;;;;;18.55;5.60;;;13.60;99.90;;;;;;6247025;23;20070;-96
2021/08/12 07:32:58;;;;;;;18.90;6.13;;;13.70;99.90;;;;;;6248180;23;20011;-95
2021/08/12 07:35:24;;;;;;;20.00;6.57;;;13.80;99.90;;;;;;6248631;23;20061;-95
2021/08/12 07:37:50;;;;;;;18.60;8.43;;;13.80;99.90;;;;;;6248737;23;20124;-95
2021/08/12 07:40:16;;;;;;;17.25;5.20;;;13.90;99.90;;;;;;6247011;23;20027;-94
2021/08/12 07:42:41;;;;;;;17.52;8.35;;;14.00;99.90;;;;;;6247394;23;20016;-95
2021/08/12 07:45:10;;;;;;;19.23;7.07;;;14.10;99.90;;;;;;6247276;23;20024;-96
2021/08/12 07:47:36;;;;;;;18.33;7.32;;;14.10;99.90;;;;;;6223315;23;20004;-96
2021/08/12 07:50:08;;;;;;;16.48;5.78;;;14.20;99.90;;;;;;6249114;23;20015;-95
2021/08/12 07:52:41;;;;;;;22.42;7.57;;;14.20;99.90;;;;;;6248166;23;20004;-95
2021/08/12 07:55:08;;;;;;;16.45;5.55;;;14.30;99.90;;;;;;6246143;23;20006;-94
2021/08/12 07:57:37;;;;;;;14.40;4.95;;;14.40;99.90;;;;;;6247134;23;20011;-94
2021/08/12 08:00:15;;;;;;;18.08;6.18;;;14.50;99.90;;;;;;6252716;23;20020;-94
2021/08/12 08:02:46;;;;;;;15.77;5.68;;;14.60;99.90;;;;;;6232000;23;20004;-95
2021/08/12 08:05:19;;;;;;;;;;;14.70;99.90;;;;;;6255718;23;20008;-95
2021/08/12 08:07:47;;;;;;;17.10;5.00;;;14.80;99.90;;;;;;6257919;22;19910;-95
2021/08/12 08:10:19;;;;;;;20.38;4.65;;;14.80;99.90;;;;;;6253160;23;20000;-96
2021/08/12 08:13:18;;;;;;;19.40;4.40;;;14.80;99.90;;;;;;6264788;23;20000;-96
2021/08/12 08:18:20;;;;;;;10.57;3.85;;;15.10;99.90;;;;;;6270882;22;20015;-95
2021/08/12 08:20:48;;;;;;;15.48;4.13;;;15.20;99.90;;;;;;6269570;23;20015;-96
2021/08/12 08:23:14;;;;;;;12.93;4.45;;;15.40;99.90;;;;;;6269689;23;19983;-94
2021/08/12 08:29:04;;;;;;;17.70;3.90;;;15.60;99.90;;;;;;6270616;23;20062;-95
2021/08/12 08:31:30;;;;;;;12.85;3.97;;;15.70;99.90;;;;;;6243455;23;20008;-95
2021/08/12 08:34:03;;;;;;;15.50;4.20;;;15.80;99.90;;;;;;6238633;23;20023;-95
2021/08/12 08:36:30;;;;;;;8.88;3.28;;;15.90;99.90;;;;;;6267900;23;20012;-94
2021/08/12 08:38:56;;;;;;;11.18;3.13;;;15.90;99.90;;;;;;6243693;23;20044;-96
2021/08/12 08:41:25;;;;;;;14.80;3.05;;;16.10;99.90;;;;;;6244270;23;20018;-96
2021/08/12 08:43:55;;;;;;;21.55;3.17;;;16.30;99.90;;;;;;6243794;22;20004;-96
2021/08/12 08:46:24;;;;;;;18.98;3.05;;;16.40;99.90;;;;;;6270946;23;20015;-96
2021/08/12 08:54:16;;;;;;;12.48;2.65;;;16.70;99.90;;;;;;6232546;22;20030;-95
2021/08/12 09:01:56;;;;;;;9.00;2.15;;;16.90;99.90;;;;;;6297713;22;20003;-96
2021/08/12 09:07:25;;;;;;;10.18;2.55;;;17.00;99.90;;;;;;6178292;22;20008;-96
2021/08/12 09:23:35;;;;;;;10.00;2.35;;;17.70;99.90;;;;;;6193331;22;20039;-93
2021/08/12 09:39:35;;;;;;;7.60;1.50;;;18.40;96.80;;;;;;6233840;23;20035;-95
2021/08/12 09:42:13;;;;;;;6.82;1.55;;;18.50;96.50;;;;;;6236439;23;19985;-94
2021/08/12 09:44:44;;;;;;;11.85;2.05;;;18.50;95.30;;;;;;6204257;22;20016;-92
2021/08/12 09:58:09;;;;;;;8.50;1.55;;;19.00;93.60;;;;;;6327488;22;20030;-96
2021/08/12 10:00:42;;;;;;;6.55;2.05;;;19.00;91.90;;;;;;6331355;22;20017;-94
2021/08/12 10:03:30;;;;;;;5.93;1.60;;;18.90;91.90;;;;;;6329974;22;20006;-95
2021/08/12 10:06:06;;;;;;;7.43;1.95;;;18.90;91.80;;;;;;6329502;22;20003;-95
2021/08/12 10:14:05;;;;;;;6.95;1.50;;;18.90;91.00;;;;;;6350041;22;20033;-96
2021/08/12 10:16:36;;;;;;;5.88;1.48;;;19.10;90.60;;;;;;6319835;22;20058;-94
2021/08/12 10:19:05;;;;;;;4.28;1.20;;;19.10;88.80;;;;;;6322280;22;20049;-95
2021/08/12 10:21:37;;;;;;;8.77;1.70;;;19.20;88.40;;;;;;6321020;22;20063;-95
2021/08/12 10:24:05;;;;;;;7.93;1.33;;;19.30;87.90;;;;;;6328452;22;20030;-96
2021/08/12 10:26:33;;;;;;;7.97;1.63;;;19.50;87.40;;;;;;6316254;22;20003;-96
2021/08/12 10:29:22;;;;;;;6.90;1.55;;;19.70;85.00;;;;;;6334285;22;19991;-96
2021/08/12 10:42:37;;;;;;;19.20;2.00;;;20.20;80.40;;;;;;6261776;22;20016;-93
2021/08/12 17:09:11;;;;;;;7.07;2.15;;;22.40;66.50;;;;;;6300472;22;20026;-93
2021/08/12 17:11:37;;;;;;;8.30;1.98;;;22.40;66.80;;;;;;6317582;22;20003;-94
2021/08/12 17:14:03;;;;;;;4.57;1.88;;;22.40;66.50;;;;;;6316588;22;20437;-94
2021/08/12 17:16:29;;;;;;;4.57;2.20;;;22.50;66.60;;;;;;6318223;22;20030;-92
2021/08/12 17:18:55;;;;;;;6.13;2.08;;;22.50;66.00;;;;;;6293587;22;20407;-94
2021/08/12 17:21:21;;;;;;;3.42;1.63;;;22.60;66.10;;;;;;6352475;22;19998;-93
2021/08/12 17:23:48;;;;;;;7.25;2.22;;;22.60;66.10;;;;;;6347692;22;20006;-95
2021/08/12 17:26:14;;;;;;;4.65;2.25;;;22.70;65.90;;;;;;6265885;22;20068;-93
2021/08/12 17:28:40;;;;;;;4.90;1.98;;;22.70;65.90;;;;;;6313853;22;20003;-93
2021/08/12 17:31:10;;;;;;;6.68;2.00;;;22.70;65.70;;;;;;6315244;22;20022;-92
2021/08/12 17:33:37;;;;;;;4.68;2.05;;;22.70;66.10;;;;;;6314346;22;20022;-92
2021/08/12 17:36:04;;;;;;;5.80;2.10;;;22.60;66.40;;;;;;6311915;22;20010;-92
2021/08/12 17:38:29;;;;;;;6.53;2.22;;;22.50;66.80;;;;;;6339980;22;20007;-92
2021/08/12 17:40:55;;;;;;;7.32;2.10;;;22.40;67.00;;;;;;6315080;22;20011;-93
2021/08/12 17:43:23;;;;;;;3.03;1.90;;;22.40;67.50;;;;;;6314785;22;20022;-92
2021/08/12 17:45:53;;;;;;;4.45;2.25;;;22.30;67.70;;;;;;6315333;22;20742;-93
2021/08/12 17:48:21;;;;;;;5.78;2.25;;;22.20;68.10;;;;;;6315916;22;20002;-94
2021/08/12 17:50:49;;;;;;;4.40;1.88;;;22.10;68.40;;;;;;6323527;22;20009;-93
2021/08/12 17:53:18;;;;;;;5.15;2.30;;;22.00;68.70;;;;;;6330455;22;20010;-95
2021/08/12 17:55:43;;;;;;;3.88;1.98;;;21.90;69.10;;;;;;6326445;22;20018;-93
2021/08/12 17:58:09;;;;;;;4.13;2.20;;;21.80;69.50;;;;;;6323862;22;20003;-93
2021/08/12 18:00:35;;;;;;;5.28;1.80;;;21.70;69.70;;;;;;6323797;22;20381;-92
2021/08/12 18:03:00;;;;;;;8.07;2.45;;;21.50;69.90;;;;;;6322623;22;20017;-92
2021/08/12 18:05:26;;;;;;;8.10;3.10;;;21.40;70.40;;;;;;6293423;22;20003;-93
2021/08/12 18:07:52;;;;;;;6.25;2.65;;;21.30;70.70;;;;;;6282499;22;20018;-93
2021/08/12 18:10:18;;;;;;;5.20;2.10;;;21.20;70.90;;;;;;6283545;22;20004;-91
2021/08/12 18:12:46;;;;;;;5.18;2.70;;;21.10;71.30;;;;;;6282614;22;20427;-93
2021/08/12 18:15:15;;;;;;;7.45;2.10;;;21.10;71.50;;;;;;6282894;22;20058;-93
2021/08/12 18:17:41;;;;;;;5.68;2.30;;;21.00;71.90;;;;;;6283397;22;20181;-94
2021/08/12 18:20:06;;;;;;;4.97;2.20;;;20.90;72.00;;;;;;6280336;22;20288;-89
2021/08/12 18:22:35;;;;;;;5.15;2.40;;;20.80;72.20;;;;;;6283543;22;19999;-91
2021/08/12 18:25:01;;;;;;;11.25;2.97;;;20.70;72.10;;;;;;6284567;22;20039;-91
2021/08/12 18:36:46;;;;;;;6.13;2.72;;;20.30;72.70;;;;;;6332869;22;20037;-88
2021/08/12 18:39:13;;;;;;;4.60;2.15;;;20.20;73.10;;;;;;6310996;22;20007;-90
2021/08/12 18:41:38;;;;;;;5.38;2.40;;;20.20;73.30;;;;;;6312065;22;20017;-90
2021/08/12 18:44:04;;;;;;;6.43;2.03;;;20.10;73.60;;;;;;6339248;22;19999;-89
2021/08/12 18:46:30;;;;;;;6.55;2.35;;;20.10;73.80;;;;;;6311741;22;20406;-89
2021/08/12 18:48:56;;;;;;;3.45;1.90;;;20.00;73.50;;;;;;6314695;22;20003;-89
2021/08/12 18:51:23;;;;;;;5.15;1.80;;;20.00;73.50;;;;;;6316366;22;20021;-89
2021/08/12 18:53:49;;;;;;;5.35;2.40;;;20.00;73.30;;;;;;6312942;22;20007;-89
2021/08/12 18:56:15;;;;;;;3.42;2.00;;;19.90;72.90;;;;;;6313316;22;20094;-90
2021/08/12 18:58:41;;;;;;;4.85;2.00;;;19.80;73.00;;;;;;6312794;22;20102;-89
2021/08/12 19:01:06;;;;;;;4.78;1.90;;;19.70;73.40;;;;;;6312667;22;20434;-89
2021/08/12 19:03:32;;;;;;;6.95;2.08;;;19.70;73.50;;;;;;6311222;22;20003;-90
2021/08/12 19:05:58;;;;;;;6.38;2.05;;;19.60;73.80;;;;;;6282041;22;20091;-88
2021/08/12 19:08:24;;;;;;;7.35;1.95;;;19.50;74.00;;;;;;6282534;22;19999;-88
2021/08/12 19:10:49;;;;;;;5.55;1.90;;;19.40;74.30;;;;;;6282373;22;20454;-88
2021/08/12 19:13:15;;;;;;;5.30;1.80;;;19.40;74.50;;;;;;6281902;22;20006;-88
2021/08/12 19:15:41;;;;;;;5.32;2.38;;;19.30;74.80;;;;;;6282026;22;20003;-89
2021/08/12 19:18:07;;;;;;;3.08;1.88;;;19.20;75.10;;;;;;6282098;22;20082;-90
2021/08/12 19:20:32;;;;;;;6.15;2.53;;;19.20;76.00;;;;;;6281674;22;20443;-88
2021/08/12 19:22:58;;;;;;;7.05;2.80;;;19.20;75.80;;;;;;6281801;22;20026;-91
2021/08/12 19:25:24;;;;;;;6.90;2.40;;;19.10;76.30;;;;;;6279233;22;20010;-91
2021/08/12 19:27:50;;;;;;;6.20;2.00;;;19.10;76.80;;;;;;6279128;22;20003;-88
2021/08/12 19:30:16;;;;;;;12.90;4.50;;;19.10;77.40;;;;;;6279105;22;20003;-88
2021/08/12 19:32:42;;;;;;;6.93;2.30;;;19.10;78.00;;;;;;6279497;22;20003;-88
2021/08/12 19:35:08;;;;;;;6.45;2.10;;;19.10;78.10;;;;;;6279346;22;20019;-90
2021/08/12 19:37:34;;;;;;;4.82;2.13;;;19.00;77.90;;;;;;6307187;22;20040;-88
2021/08/12 19:40:00;;;;;;;4.30;2.05;;;19.00;78.10;;;;;;6280133;22;20050;-88
2021/08/12 19:42:29;;;;;;;8.32;3.15;;;19.00;78.50;;;;;;6280132;22;20006;-89
2021/08/12 19:44:55;;;;;;;12.77;2.22;;;18.90;78.80;;;;;;6280390;22;20391;-90
2021/08/12 19:47:20;;;;;;;6.75;1.95;;;18.90;79.00;;;;;;6281312;22;20003;-89
2021/08/12 19:49:51;;;;;;;7.40;2.65;;;18.80;79.20;;;;;;6281396;22;20405;-90
2021/08/12 19:52:17;;;;;;;9.27;2.05;;;18.80;79.80;;;;;;6282173;22;20030;-91
2021/08/12 19:54:43;;;;;;;6.25;2.00;;;18.70;80.10;;;;;;6282756;22;20003;-91
2021/08/12 19:57:08;;;;;;;8.73;2.03;;;18.70;80.90;;;;;;6281410;22;20018;-90
2021/08/12 19:59:34;;;;;;;8.15;1.95;;;18.80;81.50;;;;;;6281230;22;20015;-91
2021/08/12 20:02:00;;;;;;;10.70;2.08;;;18.80;81.90;;;;;;6280709;22;20061;-91
2021/08/12 20:04:26;;;;;;;5.63;1.70;;;18.90;82.50;;;;;;6307833;22;20463;-90
2021/08/12 20:06:51;;;;;;;3.60;1.67;;;18.90;82.80;;;;;;6281294;22;20045;-90
2021/08/12 20:09:17;;;;;;;6.35;1.85;;;19.00;83.30;;;;;;6280914;22;20010;-90
2021/08/12 20:11:45;;;;;;;8.25;2.00;;;19.00;83.60;;;;;;6282090;22;20092;-90
2021/08/12 20:14:13;;;;;;;6.03;1.58;;;19.00;83.80;;;;;;6281464;22;20027;-90
2021/08/12 20:16:39;;;;;;;5.60;2.15;;;19.10;84.00;;;;;;6279976;22;20007;-90
2021/08/12 20:19:04;;;;;;;4.25;1.60;;;19.10;84.00;;;;;;6283647;22;20067;-91
2021/08/12 20:21:30;;;;;;;5.90;1.55;;;19.10;84.10;;;;;;6278325;22;20040;-89
2021/08/12 20:23:57;;;;;;;5.70;1.77;;;19.20;84.70;;;;;;6280453;22;20010;-90
2021/08/12 20:26:23;;;;;;;7.00;1.90;;;19.20;83.80;;;;;;6280233;22;20320;-90
2021/08/12 20:28:49;;;;;;;4.20;1.75;;;19.20;83.70;;;;;;6279796;22;20031;-90
2021/08/12 20:31:17;;;;;;;3.80;1.52;;;19.20;83.40;;;;;;6280767;22;20054;-90
2021/08/12 20:33:43;;;;;;;5.85;1.92;;;19.10;83.40;;;;;;6280101;22;20118;-91
2021/08/12 20:36:09;;;;;;;7.72;1.60;;;19.10;83.40;;;;;;6279425;22;20058;-91
2021/08/12 20:38:35;;;;;;;4.15;1.58;;;19.10;83.40;;;;;;6279141;22;20012;-91
2021/08/12 20:41:01;;;;;;;6.13;2.00;;;19.00;83.40;;;;;;6286165;22;20011;-90
2021/08/12 20:43:27;;;;;;;5.10;1.50;;;18.80;83.40;;;;;;6293677;22;20004;-90
2021/08/12 20:45:53;;;;;;;8.38;1.77;;;18.70;83.50;;;;;;6288063;22;20011;-89
2021/08/12 20:48:19;;;;;;;4.38;1.80;;;18.70;83.80;;;;;;6284132;22;20003;-89
2021/08/12 20:50:45;;;;;;;4.68;1.65;;;18.50;84.00;;;;;;6282587;22;20007;-90
2021/08/12 20:53:11;;;;;;;12.27;2.83;;;18.50;84.40;;;;;;6281960;22;20014;-91
2021/08/12 20:55:36;;;;;;;4.63;1.88;;;18.30;84.50;;;;;;6281370;22;20008;-90
2021/08/12 20:58:02;;;;;;;5.78;2.25;;;18.20;84.70;;;;;;6279669;22;20007;-90
2021/08/12 21:00:28;;;;;;;8.18;1.80;;;18.00;85.20;;;;;;6280053;22;20403;-91
2021/08/12 21:02:53;;;;;;;8.23;2.00;;;17.90;85.70;;;;;;6280316;22;20027;-90
2021/08/12 21:05:19;;;;;;;8.20;1.83;;;17.90;86.30;;;;;;6279789;22;20010;-90